createdAt,value
2016-12-11T00:00:34.683Z,3.56
2016-12-11T00:01:34.652Z,3.64
2016-12-11T00:02:34.632Z,3.59
2016-12-11T00:03:34.623Z,3.56
2016-12-11T00:04:34.606Z,3.54
2016-12-11T00:05:34.569Z,3.59
2016-12-11T00:06:34.578Z,3.53
2016-12-11T00:07:34.574Z,3.53
2016-12-11T00:08:34.542Z,3.62
2016-12-11T00:09:34.531Z,3.7
2016-12-11T00:10:34.512Z,3.63
2016-12-11T00:11:34.804Z,3.6
2016-12-11T00:12:34.473Z,3.68
2016-12-11T00:13:34.452Z,3.72
2016-12-11T00:14:34.462Z,3.67
2016-12-11T00:15:34.450Z,3.72
2016-12-11T00:16:34.410Z,3.64
2016-12-11T00:17:34.416Z,3.6
2016-12-11T00:18:34.393Z,3.6
2016-12-11T00:19:34.368Z,3.6
2016-12-11T00:20:34.346Z,3.74
2016-12-11T00:21:34.336Z,3.75
2016-12-11T00:22:34.624Z,3.67
2016-12-11T00:23:34.335Z,3.68
2016-12-11T00:24:34.300Z,3.56
2016-12-11T00:25:34.293Z,3.57
2016-12-11T00:26:34.569Z,3.57
2016-12-11T00:27:34.253Z,3.56
2016-12-11T00:28:34.239Z,3.49
2016-12-11T00:29:34.232Z,3.42
2016-12-11T00:30:34.511Z,3.49
2016-12-11T00:31:34.212Z,3.53
2016-12-11T00:32:34.164Z,3.63
2016-12-11T00:33:34.184Z,3.6
2016-12-11T00:34:34.172Z,3.44
2016-12-11T00:35:34.143Z,3.49
2016-12-11T00:36:34.118Z,3.41
2016-12-11T00:37:34.114Z,3.53
2016-12-11T00:38:34.081Z,3.5
2016-12-11T00:39:34.074Z,3.53
2016-12-11T00:40:34.086Z,3.52
2016-12-11T00:41:34.038Z,3.44
2016-12-11T00:42:34.048Z,3.45
2016-12-11T00:43:34.020Z,3.37
2016-12-11T00:44:34.005Z,3.45
2016-12-11T00:45:33.983Z,3.39
2016-12-11T00:46:34.003Z,3.44
2016-12-11T00:47:33.956Z,3.44
2016-12-11T00:48:33.948Z,3.39
2016-12-11T00:49:33.925Z,3.57
2016-12-11T00:50:33.907Z,3.45
2016-12-11T00:51:33.894Z,3.34
2016-12-11T00:52:34.495Z,3.39
2016-12-11T00:53:33.878Z,3.41
2016-12-11T00:54:33.869Z,3.42
2016-12-11T00:55:33.841Z,3.44
2016-12-11T00:56:33.820Z,3.57
2016-12-11T00:57:33.803Z,3.64
2016-12-11T00:58:33.798Z,3.56
2016-12-11T00:59:33.801Z,3.59
2016-12-11T01:00:33.751Z,3.41
2016-12-11T01:01:33.757Z,3.42
2016-12-11T01:02:33.721Z,3.49
2016-12-11T01:03:33.714Z,3.41
2016-12-11T01:04:33.718Z,3.37
2016-12-11T01:05:33.708Z,3.37
2016-12-11T01:06:33.676Z,3.39
2016-12-11T01:07:33.653Z,3.39
2016-12-11T01:08:33.629Z,3.44
2016-12-11T01:09:33.635Z,3.45
2016-12-11T01:10:33.600Z,3.34
2016-12-11T01:11:33.596Z,3.45
2016-12-11T01:12:33.569Z,3.44
2016-12-11T01:13:33.564Z,3.46
2016-12-11T01:14:33.572Z,3.37
2016-12-11T01:15:33.525Z,3.41
2016-12-11T01:16:33.518Z,3.37
2016-12-11T01:17:33.506Z,3.39
2016-12-11T01:18:33.509Z,3.34
2016-12-11T01:19:33.472Z,3.3
2016-12-11T01:20:33.483Z,3.3
2016-12-11T01:21:33.450Z,3.26
2016-12-11T01:22:33.434Z,3.26
2016-12-11T01:23:33.399Z,3.28
2016-12-11T01:24:33.406Z,3.31
2016-12-11T01:25:33.383Z,3.25
2016-12-11T01:26:33.373Z,3.23
2016-12-11T01:27:33.340Z,3.17
2016-12-11T01:28:33.330Z,3.1
2016-12-11T01:29:33.310Z,3.05
2016-12-11T01:30:33.332Z,3.23
2016-12-11T01:31:33.308Z,3.28
2016-12-11T01:32:33.269Z,3.13
2016-12-11T01:33:33.272Z,3.04
2016-12-11T01:34:33.254Z,3.15
2016-12-11T01:35:33.434Z,3.16
2016-12-11T01:36:33.408Z,3.15
2016-12-11T01:37:33.210Z,3.13
2016-12-11T01:38:33.194Z,3.12
2016-12-11T01:39:33.173Z,3.1
2016-12-11T01:40:33.149Z,3.02
2016-12-11T01:41:33.130Z,3.13
2016-12-11T01:42:33.147Z,3.02
2016-12-11T01:43:33.117Z,3.1
2016-12-11T01:44:33.096Z,3.01
2016-12-11T01:45:33.066Z,2.97
2016-12-11T01:46:33.072Z,3.02
2016-12-11T01:47:33.051Z,3.07
2016-12-11T01:48:33.050Z,3.12
2016-12-11T01:49:33.028Z,3.02
2016-12-11T01:50:33.029Z,2.97
2016-12-11T01:51:33.005Z,2.99
2016-12-11T01:52:33.000Z,3.01
2016-12-11T01:53:32.981Z,3.02
2016-12-11T01:54:32.964Z,3.01
2016-12-11T01:55:32.931Z,2.92
2016-12-11T01:56:32.935Z,2.98
2016-12-11T01:57:32.904Z,3.01
2016-12-11T01:58:32.892Z,2.9
2016-12-11T01:59:32.876Z,3.07
2016-12-11T02:00:32.858Z,3.05
2016-12-11T02:01:32.855Z,2.95
2016-12-11T02:02:32.828Z,2.94
2016-12-11T02:03:33.004Z,2.8
2016-12-11T02:04:32.978Z,2.77
2016-12-11T02:05:32.983Z,2.87
2016-12-11T02:06:32.766Z,2.94
2016-12-11T02:07:32.732Z,2.92
2016-12-11T02:08:32.731Z,2.95
2016-12-11T02:09:32.741Z,2.92
2016-12-11T02:10:32.704Z,2.9
2016-12-11T02:11:32.691Z,2.9
2016-12-11T02:12:32.672Z,2.99
2016-12-11T02:13:32.646Z,2.97
2016-12-11T02:14:32.640Z,2.97
2016-12-11T02:15:32.638Z,2.89
2016-12-11T02:16:32.619Z,2.97
2016-12-11T02:17:32.615Z,2.99
2016-12-11T02:18:32.580Z,3.01
2016-12-11T02:19:32.573Z,2.99
2016-12-11T02:20:32.556Z,3.04
2016-12-11T02:21:32.522Z,2.97
2016-12-11T02:22:32.518Z,2.98
2016-12-11T02:23:32.501Z,3.1
2016-12-11T02:24:32.489Z,3.08
2016-12-11T02:25:32.472Z,3.04
2016-12-11T02:26:32.462Z,3.07
2016-12-11T02:27:32.442Z,3.02
2016-12-11T02:28:32.431Z,3.02
2016-12-11T02:29:32.413Z,3.17
2016-12-11T02:30:32.397Z,3.2
2016-12-11T02:31:32.386Z,3.22
2016-12-11T02:32:32.371Z,3.17
2016-12-11T02:33:32.374Z,3.17
2016-12-11T02:34:32.550Z,3.12
2016-12-11T02:35:32.541Z,3.25
2016-12-11T02:36:32.298Z,3.15
2016-12-11T02:37:32.282Z,3.12
2016-12-11T02:38:32.271Z,3.31
2016-12-11T02:39:32.263Z,3.26
2016-12-11T02:40:32.264Z,3.19
2016-12-11T02:41:32.225Z,3.19
2016-12-11T02:42:32.202Z,3.25
2016-12-11T02:43:32.190Z,3.13
2016-12-11T02:44:32.185Z,3.22
2016-12-11T02:45:32.176Z,3.23
2016-12-11T02:46:32.171Z,3.16
2016-12-11T02:47:32.138Z,3.1
2016-12-11T02:48:32.128Z,2.95
2016-12-11T02:49:32.111Z,3.2
2016-12-11T02:50:32.101Z,3.3
2016-12-11T02:51:32.075Z,3.31
2016-12-11T02:52:32.071Z,2.97
2016-12-11T02:53:32.051Z,3.08
2016-12-11T02:54:32.042Z,3.23
2016-12-11T02:55:32.024Z,3.13
2016-12-11T02:56:32.025Z,2.99
2016-12-11T02:57:31.990Z,3.1
2016-12-11T02:58:31.980Z,3.23
2016-12-11T02:59:31.962Z,3.19
2016-12-11T03:00:31.962Z,3.16
2016-12-11T03:01:31.914Z,3.33
2016-12-11T03:02:31.910Z,3.26
2016-12-11T03:03:31.882Z,3.25
2016-12-11T03:04:31.881Z,3.26
2016-12-11T03:05:32.079Z,3.22
2016-12-11T03:06:31.852Z,3.23
2016-12-11T03:07:31.851Z,3.12
2016-12-11T03:08:31.824Z,3.07
2016-12-11T03:09:31.807Z,3.19
2016-12-11T03:10:31.782Z,3.16
2016-12-11T03:11:31.794Z,3.22
2016-12-11T03:12:31.772Z,3.16
2016-12-11T03:13:31.737Z,3.16
2016-12-11T03:14:31.743Z,3.12
2016-12-11T03:15:31.718Z,3.07
2016-12-11T03:16:31.698Z,3.08
2016-12-11T03:17:31.666Z,3.05
2016-12-11T03:18:31.677Z,3.12
2016-12-11T03:19:31.666Z,2.98
2016-12-11T03:20:31.624Z,3.1
2016-12-11T03:21:31.630Z,3.01
2016-12-11T03:22:31.617Z,3.02
2016-12-11T03:23:31.591Z,3.02
2016-12-11T03:24:31.583Z,3.02
2016-12-11T03:25:31.561Z,2.99
2016-12-11T03:26:31.565Z,2.99
2016-12-11T03:27:31.569Z,3.01
2016-12-11T03:28:31.514Z,2.95
2016-12-11T03:29:31.521Z,3.02
2016-12-11T03:30:31.484Z,2.95
2016-12-11T03:31:31.489Z,2.97
2016-12-11T03:32:31.469Z,2.92
2016-12-11T03:33:31.445Z,2.97
2016-12-11T03:34:31.638Z,2.95
2016-12-11T03:35:31.608Z,2.89
2016-12-11T03:36:31.399Z,2.8
2016-12-11T03:37:31.385Z,2.95
2016-12-11T03:38:31.355Z,2.87
2016-12-11T03:39:31.359Z,2.76
2016-12-11T03:40:31.339Z,2.83
2016-12-11T03:41:31.319Z,2.87
2016-12-11T03:42:31.299Z,2.83
2016-12-11T03:43:31.271Z,2.87
2016-12-11T03:44:31.277Z,2.81
2016-12-11T03:45:31.247Z,2.84
2016-12-11T03:46:31.228Z,2.81
2016-12-11T03:47:31.265Z,2.79
2016-12-11T03:48:31.208Z,2.74
2016-12-11T03:49:31.184Z,2.83
2016-12-11T03:50:31.487Z,2.84
2016-12-11T03:51:31.177Z,2.77
2016-12-11T03:52:31.169Z,2.8
2016-12-11T03:53:31.137Z,2.76
2016-12-11T03:54:31.125Z,2.77
2016-12-11T03:55:31.106Z,2.8
2016-12-11T03:56:31.096Z,2.73
2016-12-11T03:57:31.076Z,2.61
2016-12-11T03:58:31.037Z,2.59
2016-12-11T03:59:31.051Z,2.74
2016-12-11T04:00:31.027Z,2.79
2016-12-11T04:01:31.005Z,2.81
2016-12-11T04:02:31.009Z,2.69
2016-12-11T04:03:30.972Z,2.55
2016-12-11T04:04:30.973Z,2.61
2016-12-11T04:05:30.956Z,2.69
2016-12-11T04:06:30.926Z,2.63
2016-12-11T04:07:30.896Z,2.55
2016-12-11T04:08:30.882Z,2.43
2016-12-11T04:09:30.888Z,2.48
2016-12-11T04:10:30.847Z,2.58
2016-12-11T04:11:30.965Z,2.5
2016-12-11T04:12:30.836Z,2.58
2016-12-11T04:13:30.806Z,2.5
2016-12-11T04:14:30.818Z,2.47
2016-12-11T04:15:30.797Z,2.48
2016-12-11T04:16:30.754Z,2.44
2016-12-11T04:17:30.755Z,2.45
2016-12-11T04:18:30.720Z,2.3
2016-12-11T04:19:30.724Z,2.2
2016-12-11T04:20:30.699Z,2.29
2016-12-11T04:21:30.692Z,2.11
2016-12-11T04:22:30.682Z,2.11
2016-12-11T04:23:30.653Z,2.2
2016-12-11T04:24:30.644Z,2.08
2016-12-11T04:25:30.627Z,2.18
2016-12-11T04:26:30.613Z,2.15
2016-12-11T04:27:30.593Z,1.9
2016-12-11T04:28:30.582Z,1.81
2016-12-11T04:29:30.567Z,1.82
2016-12-11T04:30:30.550Z,1.85
2016-12-11T04:31:30.528Z,1.79
2016-12-11T04:32:30.520Z,1.72
2016-12-11T04:33:30.492Z,1.81
2016-12-11T04:34:30.494Z,1.81
2016-12-11T04:35:30.470Z,1.79
2016-12-11T04:36:30.435Z,1.67
2016-12-11T04:37:30.437Z,1.77
2016-12-11T04:38:30.412Z,1.89
2016-12-11T04:39:30.400Z,1.79
2016-12-11T04:40:30.382Z,1.75
2016-12-11T04:41:30.390Z,1.75
2016-12-11T04:42:30.355Z,1.57
2016-12-11T04:43:30.356Z,1.7
2016-12-11T04:44:30.340Z,1.81
2016-12-11T04:45:30.293Z,1.65
2016-12-11T04:46:30.296Z,1.77
2016-12-11T04:47:30.279Z,1.77
2016-12-11T04:48:30.261Z,1.74
2016-12-11T04:49:30.239Z,1.72
2016-12-11T04:50:30.238Z,1.63
2016-12-11T04:51:30.203Z,1.6
2016-12-11T04:52:30.177Z,1.52
2016-12-11T04:53:30.192Z,1.61
2016-12-11T04:54:30.165Z,1.5
2016-12-11T04:55:30.163Z,1.46
2016-12-11T04:56:30.125Z,1.46
2016-12-11T04:57:30.125Z,1.5
2016-12-11T04:58:30.098Z,1.54
2016-12-11T04:59:30.071Z,1.44
2016-12-11T05:00:30.075Z,1.39
2016-12-11T05:01:30.046Z,1.5
2016-12-11T05:02:30.019Z,1.46
2016-12-11T05:03:30.023Z,1.52
2016-12-11T05:04:30.003Z,1.64
2016-12-11T05:05:29.996Z,1.61
2016-12-11T05:06:29.958Z,1.6
2016-12-11T05:07:29.943Z,1.61
2016-12-11T05:08:29.952Z,1.61
2016-12-11T05:09:29.924Z,1.67
2016-12-11T05:10:29.900Z,1.64
2016-12-11T05:11:29.878Z,1.46
2016-12-11T05:12:29.880Z,1.6
2016-12-11T05:13:29.847Z,1.71
2016-12-11T05:14:29.835Z,1.68
2016-12-11T05:15:29.809Z,1.64
2016-12-11T05:16:29.822Z,1.74
2016-12-11T05:17:29.782Z,1.56
2016-12-11T05:18:29.789Z,1.65
2016-12-11T05:19:29.745Z,1.5
2016-12-11T05:20:29.750Z,1.49
2016-12-11T05:21:29.706Z,1.52
2016-12-11T05:22:29.720Z,1.5
2016-12-11T05:23:29.665Z,1.42
2016-12-11T05:24:29.681Z,1.5
2016-12-11T05:25:29.654Z,1.53
2016-12-11T05:26:29.636Z,1.5
2016-12-11T05:27:29.627Z,1.36
2016-12-11T05:28:29.596Z,1.39
2016-12-11T05:29:29.582Z,1.52
2016-12-11T05:30:29.587Z,1.31
2016-12-11T05:31:29.544Z,1.36
2016-12-11T05:32:29.535Z,1.25
2016-12-11T05:33:29.501Z,1.2
2016-12-11T05:34:29.507Z,1.2
2016-12-11T05:35:29.465Z,1.24
2016-12-11T05:36:29.473Z,1.24
2016-12-11T05:37:29.471Z,1.18
2016-12-11T05:38:29.452Z,1.14
2016-12-11T05:39:29.408Z,1.13
2016-12-11T05:40:29.388Z,1.14
2016-12-11T05:41:29.365Z,1.14
2016-12-11T05:42:29.346Z,1.04
2016-12-11T05:43:29.349Z,0.96
2016-12-11T05:44:29.316Z,1.13
2016-12-11T05:45:29.307Z,1.16
2016-12-11T05:46:29.302Z,1.21
2016-12-11T05:47:29.282Z,1.2
2016-12-11T05:48:29.255Z,1.07
2016-12-11T05:49:29.225Z,0.99
2016-12-11T05:50:29.222Z,1.08
2016-12-11T05:51:29.208Z,1.14
2016-12-11T05:52:29.210Z,1.06
2016-12-11T05:53:29.159Z,1.13
2016-12-11T05:54:29.144Z,1.16
2016-12-11T05:55:29.145Z,1.02
2016-12-11T05:56:29.135Z,1.1
2016-12-11T05:57:29.122Z,0.89
2016-12-11T05:58:29.084Z,0.89
2016-12-11T05:59:29.071Z,0.86
2016-12-11T06:00:29.041Z,0.9
2016-12-11T06:01:29.055Z,0.9
2016-12-11T06:02:29.022Z,0.81
2016-12-11T06:03:29.000Z,0.75
2016-12-11T06:04:28.980Z,0.82
2016-12-11T06:05:28.977Z,0.95
2016-12-11T06:06:28.950Z,0.74
2016-12-11T06:07:28.954Z,0.74
2016-12-11T06:08:28.915Z,0.77
2016-12-11T06:09:28.894Z,0.71
2016-12-11T06:10:28.891Z,0.63
2016-12-11T06:11:28.863Z,0.72
2016-12-11T06:12:28.828Z,0.77
2016-12-11T06:13:28.839Z,0.59
2016-12-11T06:14:28.805Z,0.52
2016-12-11T06:15:28.783Z,0.56
2016-12-11T06:16:28.786Z,0.45
2016-12-11T06:17:28.739Z,0.49
2016-12-11T06:18:28.742Z,0.51
2016-12-11T06:19:28.709Z,0.57
2016-12-11T06:20:28.708Z,0.62
2016-12-11T06:21:28.683Z,0.62
2016-12-11T06:22:28.658Z,0.51
2016-12-11T06:23:28.657Z,0.52
2016-12-11T06:24:28.615Z,0.4
2016-12-11T06:25:28.621Z,0.34
2016-12-11T06:26:28.593Z,0.4
2016-12-11T06:27:28.583Z,0.2
2016-12-11T06:28:28.550Z,0.25
2016-12-11T06:29:28.591Z,0.28
2016-12-11T06:30:28.525Z,0.22
2016-12-11T06:31:28.527Z,0.22
2016-12-11T06:32:28.498Z,0.23
2016-12-11T06:33:28.468Z,0.16
2016-12-11T06:34:28.455Z,0.13
2016-12-11T06:35:28.434Z,0.19
2016-12-11T06:36:28.430Z,-0.05
2016-12-11T06:37:28.418Z,-0.05
2016-12-11T06:38:28.400Z,-0.13
2016-12-11T06:39:28.385Z,-0.13
2016-12-11T06:40:28.329Z,-0.16
2016-12-11T06:41:28.651Z,-0.16
2016-12-11T06:42:28.294Z,-0.13
2016-12-11T06:43:28.308Z,-0.09
2016-12-11T06:44:28.278Z,-0.31
2016-12-11T06:45:28.278Z,-0.24
2016-12-11T06:46:28.256Z,-0.24
2016-12-11T06:47:28.212Z,-0.17
2016-12-11T06:48:28.215Z,-0.26
2016-12-11T06:49:28.186Z,-0.27
2016-12-11T06:50:28.170Z,-0.32
2016-12-11T06:51:28.154Z,-0.26
2016-12-11T06:52:28.117Z,-0.34
2016-12-11T06:53:28.096Z,-0.38
2016-12-11T06:54:28.100Z,-0.41
2016-12-11T06:55:28.069Z,-0.59
2016-12-11T06:56:28.057Z,-0.59
2016-12-11T06:57:28.033Z,-0.68
2016-12-11T06:58:28.032Z,-0.2
2016-12-11T06:59:28.026Z,0.12
2016-12-11T07:00:27.970Z,0.15
2016-12-11T07:01:27.988Z,0.15
2016-12-11T07:02:28.236Z,0.13
2016-12-11T07:03:27.953Z,0.19
2016-12-11T07:04:27.927Z,0.19
2016-12-11T07:05:27.914Z,0.13
2016-12-11T07:06:27.876Z,0.01
2016-12-11T07:07:27.873Z,-0.09
2016-12-11T07:08:27.843Z,-0.03
2016-12-11T07:09:27.830Z,0.08
2016-12-11T07:10:27.822Z,0.16
2016-12-11T07:11:27.792Z,0.2
2016-12-11T07:12:27.783Z,0.22
2016-12-11T07:13:27.791Z,0.28
2016-12-11T07:14:27.721Z,0.19
2016-12-11T07:15:27.703Z,0.31
2016-12-11T07:16:27.682Z,0.28
2016-12-11T07:17:27.688Z,0.33
2016-12-11T07:18:27.656Z,0.23
2016-12-11T07:19:27.653Z,0.2
2016-12-11T07:20:27.612Z,0.17
2016-12-11T07:21:27.618Z,0.08
2016-12-11T07:22:27.897Z,-0.05
2016-12-11T07:23:27.559Z,-0.26
2016-12-11T07:24:27.565Z,-0.27
2016-12-11T07:25:27.535Z,-0.17
2016-12-11T07:26:27.509Z,-0.05
2016-12-11T07:27:27.500Z,0.17
2016-12-11T07:28:27.468Z,0.08
2016-12-11T07:29:27.442Z,0.17
2016-12-11T07:30:27.444Z,0.1
2016-12-11T07:31:27.413Z,0.1
2016-12-11T07:32:27.417Z,0.12
2016-12-11T07:33:27.390Z,0.1
2016-12-11T07:34:27.378Z,-0.02
2016-12-11T07:35:27.369Z,-0.08
2016-12-11T07:36:27.328Z,-0.08
2016-12-11T07:37:27.306Z,0.01
2016-12-11T07:38:27.295Z,0.05
2016-12-11T07:39:27.288Z,-0.08
2016-12-11T07:40:27.250Z,-0.34
2016-12-11T07:41:27.242Z,-0.38
2016-12-11T07:42:27.226Z,-0.05
2016-12-11T07:43:27.239Z,-0.12
2016-12-11T07:44:27.207Z,0.16
2016-12-11T07:45:27.178Z,0.13
2016-12-11T07:46:27.172Z,0.25
2016-12-11T07:47:27.133Z,0.28
2016-12-11T07:48:27.106Z,0.2
2016-12-11T07:49:27.095Z,0.26
2016-12-11T07:50:27.090Z,0.16
2016-12-11T07:51:27.055Z,-0.05
2016-12-11T07:52:27.048Z,0.05
2016-12-11T07:53:27.021Z,0.15
2016-12-11T07:54:27.312Z,0.28
2016-12-11T07:55:26.984Z,0.38
2016-12-11T07:56:27.012Z,0.37
2016-12-11T07:57:26.940Z,0.63
2016-12-11T07:58:26.927Z,0.7
2016-12-11T07:59:26.930Z,0.74
2016-12-11T08:00:26.909Z,0.72
2016-12-11T08:01:26.896Z,0.84
2016-12-11T08:02:26.877Z,0.72
2016-12-11T08:03:26.848Z,0.96
2016-12-11T08:04:26.812Z,0.77
2016-12-11T08:05:26.794Z,0.82
2016-12-11T08:06:26.804Z,1.02
2016-12-11T08:07:26.794Z,0.93
2016-12-11T08:08:26.783Z,1.02
2016-12-11T08:09:26.756Z,1.1
2016-12-11T08:10:26.737Z,1.13
2016-12-11T08:11:26.725Z,1.11
2016-12-11T08:12:26.685Z,0.88
2016-12-11T08:13:26.689Z,1.08
2016-12-11T08:14:26.649Z,1.26
2016-12-11T08:15:26.634Z,1.04
2016-12-11T08:16:26.639Z,0.8
2016-12-11T08:17:26.582Z,0.71
2016-12-11T08:18:26.569Z,0.74
2016-12-11T08:19:26.590Z,1.07
2016-12-11T08:20:26.532Z,1.24
2016-12-11T08:21:26.520Z,1.13
2016-12-11T08:22:26.532Z,0.78
2016-12-11T08:23:26.511Z,0.62
2016-12-11T08:24:26.463Z,0.59
2016-12-11T08:25:26.466Z,0.49
2016-12-11T08:26:26.443Z,0.77
2016-12-11T08:27:26.439Z,0.86
2016-12-11T08:28:26.398Z,0.93
2016-12-11T08:29:26.408Z,1.21
2016-12-11T08:30:26.385Z,1.32
2016-12-11T08:31:26.360Z,1.42
2016-12-11T08:32:26.339Z,1.24
2016-12-11T08:33:26.323Z,0.86
2016-12-11T08:34:26.310Z,0.78
2016-12-11T08:35:26.293Z,0.7
2016-12-11T08:36:26.278Z,0.9
2016-12-11T08:37:26.274Z,0.4
2016-12-11T08:38:26.249Z,0.34
2016-12-11T08:39:26.226Z,0.49
2016-12-11T08:40:26.201Z,0.67
2016-12-11T08:41:26.175Z,0.81
2016-12-11T08:42:26.159Z,0.77
2016-12-11T08:43:26.167Z,1
2016-12-11T08:44:26.138Z,0.71
2016-12-11T08:45:26.113Z,0.3
2016-12-11T08:46:26.103Z,-0.59
2016-12-11T08:47:26.065Z,-0.76
2016-12-11T08:48:26.081Z,-0.73
2016-12-11T08:49:26.052Z,-0.71
2016-12-11T08:50:26.045Z,-0.85
2016-12-11T08:51:25.992Z,-0.5
2016-12-11T08:52:25.985Z,-0.31
2016-12-11T08:53:25.977Z,-0.12
2016-12-11T08:54:25.937Z,-0.23
2016-12-11T08:55:25.923Z,-0.3
2016-12-11T08:56:25.922Z,-0.34
2016-12-11T08:57:25.895Z,-0.67
2016-12-11T08:58:25.885Z,-0.58
2016-12-11T08:59:25.866Z,-0.73
2016-12-11T09:00:25.846Z,-0.35
2016-12-11T09:01:25.829Z,-0.45
2016-12-11T09:02:25.810Z,-0.55
2016-12-11T09:03:25.784Z,-0.55
2016-12-11T09:04:25.759Z,-0.92
2016-12-11T09:05:25.763Z,-1.2
2016-12-11T09:06:25.770Z,-1.56
2016-12-11T09:07:25.709Z,-1.31
2016-12-11T09:08:25.692Z,-1.39
2016-12-11T09:09:25.704Z,-1.43
2016-12-11T09:10:25.657Z,-1.32
2016-12-11T09:11:25.626Z,-1.11
2016-12-11T09:12:25.607Z,-1.18
2016-12-11T09:13:25.616Z,-0.9
2016-12-11T09:14:25.582Z,-1.07
2016-12-11T09:15:25.559Z,-0.71
2016-12-11T09:16:25.544Z,-0.49
2016-12-11T09:17:25.503Z,-0.49
2016-12-11T09:18:25.511Z,-0.65
2016-12-11T09:19:25.489Z,-1.26
2016-12-11T09:20:25.446Z,-1.53
2016-12-11T09:21:25.455Z,-1.72
2016-12-11T09:22:25.429Z,-1.88
2016-12-11T09:23:25.410Z,-1.78
2016-12-11T09:24:25.392Z,-1.86
2016-12-11T09:25:25.361Z,-1.93
2016-12-11T09:26:25.350Z,-1.89
2016-12-11T09:27:25.323Z,-1.65
2016-12-11T09:28:25.316Z,-1.68
2016-12-11T09:29:25.313Z,-1.61
2016-12-11T09:30:25.273Z,-1.39
2016-12-11T09:31:25.245Z,-1.64
2016-12-11T09:32:25.292Z,-1.9
2016-12-11T09:33:25.199Z,-1.67
2016-12-11T09:34:25.208Z,-1.92
2016-12-11T09:35:25.175Z,-1.88
2016-12-11T09:36:25.169Z,-1.44
2016-12-11T09:37:25.203Z,-1.38
2016-12-11T09:38:25.104Z,-1.68
2016-12-11T09:39:25.113Z,-2.03
2016-12-11T09:40:25.078Z,-2.01
2016-12-11T09:41:25.075Z,-2.46
2016-12-11T09:42:25.038Z,-2.72
2016-12-11T09:43:25.026Z,-2.64
2016-12-11T09:44:25.022Z,-2.44
2016-12-11T09:45:24.983Z,-2.32
2016-12-11T09:46:24.956Z,-2.64
2016-12-11T09:47:24.940Z,-2.69
2016-12-11T09:48:24.912Z,-2.84
2016-12-11T09:49:24.904Z,-2.82
2016-12-11T09:50:24.885Z,-2.69
2016-12-11T09:51:24.873Z,-3.01
2016-12-11T09:52:24.868Z,-3.08
2016-12-11T09:53:24.849Z,-3.13
2016-12-11T09:54:24.824Z,-2.87
2016-12-11T09:55:24.789Z,-2.77
2016-12-11T09:56:24.791Z,-2.46
2016-12-11T09:57:24.758Z,-2.46
2016-12-11T09:58:24.709Z,-2.66
2016-12-11T09:59:24.697Z,-2.68
2016-12-11T10:00:24.684Z,-2.8
2016-12-11T10:01:24.683Z,-2.87
2016-12-11T10:02:24.633Z,-2.8
2016-12-11T10:03:24.644Z,-2.86
2016-12-11T10:04:24.626Z,-3.05
2016-12-11T10:05:24.587Z,-3.13
2016-12-11T10:06:24.554Z,-3.02
2016-12-11T10:07:24.552Z,-3.07
2016-12-11T10:08:24.533Z,-2.97
2016-12-11T10:09:24.508Z,-2.86
2016-12-11T10:10:24.479Z,-2.94
2016-12-11T10:11:24.447Z,-2.95
2016-12-11T10:12:24.446Z,-2.9
2016-12-11T10:13:24.422Z,-2.89
2016-12-11T10:14:24.402Z,-2.61
2016-12-11T10:15:24.366Z,-2.35
2016-12-11T10:16:24.350Z,-2.08
2016-12-11T10:17:24.340Z,-2.13
2016-12-11T10:18:24.322Z,-2.25
2016-12-11T10:19:24.304Z,-2.33
2016-12-11T10:20:24.281Z,-2.24
2016-12-11T10:21:24.252Z,-2.24
2016-12-11T10:22:24.265Z,-2.19
2016-12-11T10:23:24.218Z,-2.18
2016-12-11T10:24:24.215Z,-2.26
2016-12-11T10:25:24.201Z,-2.68
2016-12-11T10:26:24.152Z,-2.74
2016-12-11T10:27:24.155Z,-2.71
2016-12-11T10:28:24.109Z,-2.72
2016-12-11T10:29:24.120Z,-2.69
2016-12-11T10:30:24.066Z,-2.65
2016-12-11T10:31:24.384Z,-2.26
2016-12-11T10:32:24.040Z,-2.07
2016-12-11T10:33:24.036Z,-2.18
2016-12-11T10:34:24.013Z,-2.35
2016-12-11T10:35:23.996Z,-2.4
2016-12-11T10:36:23.965Z,-2.33
2016-12-11T10:37:23.950Z,-2.33
2016-12-11T10:38:23.921Z,-2.35
2016-12-11T10:39:23.895Z,-2.33
2016-12-11T10:40:23.897Z,-2.5
2016-12-11T10:41:23.872Z,-2.32
2016-12-11T10:42:23.857Z,-2.35
2016-12-11T10:43:23.812Z,-2.19
2016-12-11T10:44:23.812Z,-2.16
2016-12-11T10:45:23.779Z,-2.22
2016-12-11T10:46:23.769Z,-2.38
2016-12-11T10:47:23.754Z,-2.28
2016-12-11T10:48:23.723Z,-2.47
2016-12-11T10:49:23.716Z,-2.62
2016-12-11T10:50:23.691Z,-2.46
2016-12-11T10:51:23.668Z,-2.25
2016-12-11T10:52:23.641Z,-2.03
2016-12-11T10:53:23.650Z,-1.9
2016-12-11T10:54:23.636Z,-1.89
2016-12-11T10:55:23.607Z,-2.04
2016-12-11T10:56:23.593Z,-2.06
2016-12-11T10:57:23.549Z,-2
2016-12-11T10:58:23.547Z,-2.21
2016-12-11T10:59:23.529Z,-2.38
2016-12-11T11:00:23.484Z,-2.41
2016-12-11T11:01:23.488Z,-2.25
2016-12-11T11:02:23.487Z,-2.37
2016-12-11T11:03:23.441Z,-2.44
2016-12-11T11:04:23.424Z,-2.44
2016-12-11T11:05:23.409Z,-2.5
2016-12-11T11:06:23.382Z,-2.47
2016-12-11T11:07:23.367Z,-2.62
2016-12-11T11:08:23.354Z,-2.83
2016-12-11T11:09:23.330Z,-2.86
2016-12-11T11:10:23.312Z,-2.87
2016-12-11T11:11:23.288Z,-2.74
2016-12-11T11:12:23.273Z,-2.71
2016-12-11T11:13:23.273Z,-2.8
2016-12-11T11:14:23.251Z,-2.64
2016-12-11T11:15:23.233Z,-2.66
2016-12-11T11:16:23.178Z,-2.66
2016-12-11T11:17:23.196Z,-2.65
2016-12-11T11:18:23.177Z,-2.55
2016-12-11T11:19:23.149Z,-2.41
2016-12-11T11:20:23.114Z,-2.48
2016-12-11T11:21:23.103Z,-2.66
2016-12-11T11:22:23.084Z,-2.72
2016-12-11T11:23:23.064Z,-2.79
2016-12-11T11:24:23.059Z,-2.61
2016-12-11T11:25:23.039Z,-2.48
2016-12-11T11:26:23.002Z,-2.43
2016-12-11T11:27:22.980Z,-2.32
2016-12-11T11:28:22.982Z,-2.35
2016-12-11T11:29:22.953Z,-2.35
2016-12-11T11:30:22.942Z,-2.32
2016-12-11T11:31:22.924Z,-2.08
2016-12-11T11:32:23.217Z,-2.11
2016-12-11T11:33:22.875Z,-2.01
2016-12-11T11:34:22.845Z,-2.03
2016-12-11T11:35:22.827Z,-2.07
2016-12-11T11:36:22.828Z,-2.26
2016-12-11T11:37:22.774Z,-2.19
2016-12-11T11:38:22.790Z,-2.16
2016-12-11T11:39:22.734Z,-2.08
2016-12-11T11:40:22.736Z,-2.47
2016-12-11T11:41:22.706Z,-2.44
2016-12-11T11:42:22.696Z,-2.5
2016-12-11T11:43:22.677Z,-2.83
2016-12-11T11:44:22.655Z,-2.68
2016-12-11T11:45:22.642Z,-2.79
2016-12-11T11:46:22.622Z,-2.76
2016-12-11T11:47:22.619Z,-2.84
2016-12-11T11:48:22.564Z,-3.08
2016-12-11T11:49:22.563Z,-3.1
2016-12-11T11:50:22.555Z,-3
2016-12-11T11:51:22.526Z,-2.8
2016-12-11T11:52:22.492Z,-2.8
2016-12-11T11:53:22.474Z,-2.93
2016-12-11T11:54:22.468Z,-2.9
2016-12-11T11:55:22.463Z,-2.83
2016-12-11T11:56:22.434Z,-2.9
2016-12-11T11:57:22.413Z,-3.08
2016-12-11T11:58:22.376Z,-3.39
2016-12-11T11:59:22.371Z,-3.49
2016-12-11T12:00:22.338Z,-3.39
2016-12-11T12:01:22.313Z,-3.39
2016-12-11T12:02:22.303Z,-3.51
2016-12-11T12:03:22.307Z,-3.43
2016-12-11T12:04:22.281Z,-3.31
2016-12-11T12:05:22.271Z,-3.21
2016-12-11T12:06:22.224Z,-3.23
2016-12-11T12:07:22.209Z,-3.21
2016-12-11T12:08:22.191Z,-3.1
2016-12-11T12:09:22.165Z,-3.07
2016-12-11T12:10:22.146Z,-2.93
2016-12-11T12:11:22.112Z,-2.86
2016-12-11T12:12:22.105Z,-3.08
2016-12-11T12:13:22.100Z,-3.22
2016-12-11T12:14:22.073Z,-3.22
2016-12-11T12:15:22.057Z,-3.25
2016-12-11T12:16:22.025Z,-3.1
2016-12-11T12:17:22.005Z,-3.08
2016-12-11T12:18:21.993Z,-3.1
2016-12-11T12:19:21.974Z,-2.95
2016-12-11T12:20:21.945Z,-3.1
2016-12-11T12:21:21.934Z,-3.02
2016-12-11T12:22:21.901Z,-2.87
2016-12-11T12:23:21.873Z,-2.8
2016-12-11T12:24:21.855Z,-2.77
2016-12-11T12:25:21.905Z,-2.71
2016-12-11T12:26:21.849Z,-2.71
2016-12-11T12:27:21.822Z,-2.69
2016-12-11T12:28:21.776Z,-2.68
2016-12-11T12:29:21.778Z,-3.07
2016-12-11T12:30:21.742Z,-3.26
2016-12-11T12:31:21.737Z,-3.39
2016-12-11T12:32:21.704Z,-3.36
2016-12-11T12:33:21.684Z,-3.33
2016-12-11T12:34:21.664Z,-3.15
2016-12-11T12:35:21.665Z,-3.07
2016-12-11T12:36:21.638Z,-3.16
2016-12-11T12:37:21.623Z,-3.08
2016-12-11T12:38:21.608Z,-3.1
2016-12-11T12:39:21.595Z,-3.18
2016-12-11T12:40:21.544Z,-3.23
2016-12-11T12:41:21.536Z,-3.12
2016-12-11T12:42:21.504Z,-3.1
2016-12-11T12:43:21.488Z,-3
2016-12-11T12:44:21.472Z,-3.01
2016-12-11T12:45:21.459Z,-2.94
2016-12-11T12:46:21.430Z,-3
2016-12-11T12:47:21.412Z,-2.95
2016-12-11T12:48:21.391Z,-2.94
2016-12-11T12:49:21.377Z,-2.93
2016-12-11T12:50:21.357Z,-2.94
2016-12-11T12:51:21.341Z,-3
2016-12-11T12:52:21.304Z,-3.07
2016-12-11T12:53:21.299Z,-2.95
2016-12-11T12:54:21.271Z,-3.01
2016-12-11T12:55:21.244Z,-2.95
2016-12-11T12:56:21.243Z,-2.93
2016-12-11T12:57:21.233Z,-2.83
2016-12-11T12:58:21.217Z,-2.69
2016-12-11T12:59:21.193Z,-2.95
2016-12-11T13:00:21.492Z,-3.01
2016-12-11T13:01:21.156Z,-2.98
2016-12-11T13:02:21.106Z,-3.08
2016-12-11T13:03:21.084Z,-3.3
2016-12-11T13:04:21.076Z,-3.16
2016-12-11T13:05:21.048Z,-3.23
2016-12-11T13:06:21.025Z,-3.33
2016-12-11T13:07:21.017Z,-3.25
2016-12-11T13:08:21.007Z,-3.23
2016-12-11T13:09:20.986Z,-3.1
2016-12-11T13:10:20.952Z,-3.05
2016-12-11T13:11:20.932Z,-3.01
2016-12-11T13:12:20.914Z,-3.12